This is the latest recevied weather packets stored in our database for station/object KB4RFE. If no packets are shown the sender has not sent any weather packets the latest 1 day(s).
| Time | Temp. | Humidity | Pressure | Rain* | Wind** | Luminosity | Snow |
|---|---|---|---|---|---|---|---|
| 1778008765 | 24.44° C | 57% | 1021 hPa | 0 mm | 1.34 m/s, 250° | 944 W/m² | - |
| 1778008464 | 24.44° C | 55% | 1021.1 hPa | 0 mm | 2.68 m/s, 219° | 994 W/m² | - |
| 1778008160 | 24.44° C | 56% | 1020.9 hPa | 0 mm | 1.79 m/s, 213° | 591 W/m² | - |
| 1778007855 | 25° C | 56% | 1021 hPa | 0 mm | 2.24 m/s, 219° | 359 W/m² | - |
| 1778007550 | 25° C | 57% | 1020.9 hPa | 0 mm | 2.68 m/s, 214° | 891 W/m² | - |
| 1778007248 | 24.44° C | 57% | 1020.8 hPa | 0 mm | 1.79 m/s, 218° | 881 W/m² | - |
| 1778006944 | 24.44° C | 57% | 1020.8 hPa | 0 mm | 0.89 m/s, 246° | 884 W/m² | - |
| 1778006641 | 24.44° C | 56% | 1021 hPa | 0 mm | 1.79 m/s, 215° | 895 W/m² | - |
| 1778006338 | 25° C | 55% | 1020.7 hPa | 0 mm | 1.34 m/s, 206° | 901 W/m² | - |
| 1778006035 | 24.44° C | 58% | 1020.6 hPa | 0 mm | 2.68 m/s, 249° | 908 W/m² | - |
| 1778005731 | 25° C | 60% | 1020.6 hPa | 0 mm | 1.34 m/s, 185° | 914 W/m² | - |
| 1778005428 | 24.44° C | 55% | 1020.8 hPa | 0 mm | 1.79 m/s, 218° | 927 W/m² | - |
| 1778005125 | 24.44° C | 55% | 1020.8 hPa | 0 mm | 3.13 m/s, 224° | 941 W/m² | - |
| 1778004822 | 24.44° C | 61% | 1020.8 hPa | 0 mm | 1.79 m/s, 249° | 933 W/m² | - |
| 1778004519 | 24.44° C | 53% | 1021 hPa | 0 mm | 2.24 m/s, 243° | 948 W/m² | - |
| 1778004215 | 24.44° C | 58% | 1021 hPa | 0 mm | 2.24 m/s, 214° | 946 W/m² | - |
| 1778003912 | 23.89° C | 54% | 1020.9 hPa | 0 mm | 3.58 m/s, 219° | 957 W/m² | - |
| 1778003608 | 23.89° C | 57% | 1020.6 hPa | 0 mm | 1.34 m/s, 186° | 962 W/m² | - |
| 1778003305 | 23.89° C | 60% | 1020.6 hPa | 0 mm | 1.79 m/s, 214° | 965 W/m² | - |
| 1778003002 | 23.33° C | 64% | 1020.6 hPa | 0 mm | 1.79 m/s, 230° | 955 W/m² | - |
| 1778002698 | 23.89° C | 57% | 1020.7 hPa | 0 mm | 4.47 m/s, 221° | 972 W/m² | - |
| 1778002395 | 23.89° C | 56% | 1021.1 hPa | 0 mm | 4.92 m/s, 225° | 1013 W/m² | - |
| 1778002092 | 23.89° C | 60% | 1021 hPa | 0 mm | 2.68 m/s, 201° | 1066 W/m² | - |
| 1778001789 | 23.89° C | 56% | 1021 hPa | 0 mm | 3.13 m/s, 214° | 969 W/m² | - |
| 1778001484 | 23.89° C | 57% | 1020.8 hPa | 0 mm | 1.79 m/s, 241° | 964 W/m² | - |
* Rain latest hour (hover to see other rain measurements)
** Current wind speed in m/s (hover to see current wind gust speed)